Skip Navigation Links Skip Navigation Links

Current Weather

Quantico MCAF/Turner Field, Quantico, Va.

For information only: do not use for flight planning or navigation.
Latest weather
Observation time Wednesday, December 2, 2020 9:56 PM EST
Local time Wednesday, December 2, 2020 10:46 PM EST
Flight conditions Visual Meteorological Conditions
Winds
Wind direction West (270°)
Wind speed 5 mph
Visibility 10 mi.
Sky condition
Ceiling unlimited
Sky clear
Temperature 37°F
Dewpoint 27°F
Altimeter 30.26 in.Hg
Pressure change last 3 hours-0.03 in.Hg
Pressure rising more quickly
Derived measurements
Relative humidity 67%
Wind chill 33°F
Density altitude -1782 ft.
Sea-level pressure 30.27 in.Hg
Remarks
Fully automated report.
Automated weather observing station with precipitation discriminator.
METAR KNYG 030256Z AUTO 27004KT 10SM CLR 03/M03 A3026 RMK AO2 SLP249 T00281028 53010

Settings

Location code

InnerDrive.Weather 4.0.6770.0 Release CLR 4.0.30319.42000
Copyright ©2018 Inner Drive Technology. All rights reserved. Portions Copyright ©1986-2018 David Braverman.

Find weather

Site navigation


Skip Navigation Links

Place info

Page info

PayPal - The safer, easier way to pay online!

Return home.

Copyright ©2020 Inner Drive Technology. Purveyors of fine, hand-crafted computer software. Page printed 2020-12-03T03:46:05 UTC.